sensor_id;sensor_type;location;lat;lon;timestamp;pressure;altitude;pressure_sealevel;temperature;humidity
62524;BME280;53689;56.878;60.672;2022-08-11T00:01:10;98211.06;;;28.80;33.68
62524;BME280;53689;56.878;60.672;2022-08-11T00:03:43;98212.03;;;28.74;33.26
62524;BME280;53689;56.878;60.672;2022-08-11T00:06:12;98205.09;;;28.66;33.48
62524;BME280;53689;56.878;60.672;2022-08-11T00:08:41;98210.22;;;28.62;33.35
62524;BME280;53689;56.878;60.672;2022-08-11T00:11:11;98213.19;;;28.61;33.43
62524;BME280;53689;56.878;60.672;2022-08-11T00:13:44;98212.19;;;28.50;33.51
62524;BME280;53689;56.878;60.672;2022-08-11T00:16:16;98207.22;;;28.47;33.79
62524;BME280;53689;56.878;60.672;2022-08-11T00:18:47;98212.75;;;28.52;33.85
62524;BME280;53689;56.878;60.672;2022-08-11T00:21:15;98213.59;;;28.52;33.59
62524;BME280;53689;56.878;60.672;2022-08-11T00:23:51;98217.84;;;28.48;33.76
62524;BME280;53689;56.878;60.672;2022-08-11T00:26:19;98213.03;;;28.50;34.14
62524;BME280;53689;56.878;60.672;2022-08-11T00:28:49;98209.69;;;28.48;34.10
62524;BME280;53689;56.878;60.672;2022-08-11T00:31:22;98219.78;;;28.48;33.24
62524;BME280;53689;56.878;60.672;2022-08-11T00:33:53;98217.38;;;28.51;33.69
62524;BME280;53689;56.878;60.672;2022-08-11T00:36:25;98220.59;;;28.48;33.92
62524;BME280;53689;56.878;60.672;2022-08-11T00:38:54;98213.75;;;28.46;34.25
62524;BME280;53689;56.878;60.672;2022-08-11T00:41:35;98218.19;;;28.52;33.76
62524;BME280;53689;56.878;60.672;2022-08-11T00:44:26;98213.25;;;28.49;33.88
62524;BME280;53689;56.878;60.672;2022-08-11T00:47:01;98216.56;;;28.51;34.20
62524;BME280;53689;56.878;60.672;2022-08-11T00:49:42;98212.81;;;28.40;34.05
62524;BME280;53689;56.878;60.672;2022-08-11T00:52:28;98221.25;;;28.38;33.79
62524;BME280;53689;56.878;60.672;2022-08-11T00:55:32;98214.50;;;28.41;33.62
62524;BME280;53689;56.878;60.672;2022-08-11T00:58:43;98218.84;;;28.42;33.94
62524;BME280;53689;56.878;60.672;2022-08-11T01:01:28;98210.34;;;28.38;34.14
62524;BME280;53689;56.878;60.672;2022-08-11T01:10:38;98220.25;;;28.45;33.98
62524;BME280;53689;56.878;60.672;2022-08-11T01:13:17;98212.19;;;28.50;34.07
62524;BME280;53689;56.878;60.672;2022-08-11T01:25:38;98208.72;;;28.72;33.85
62524;BME280;53689;56.878;60.672;2022-08-11T01:41:28;98217.63;;;28.50;33.90
62524;BME280;53689;56.878;60.672;2022-08-11T01:44:18;98214.22;;;28.43;33.92
62524;BME280;53689;56.878;60.672;2022-08-11T01:46:52;98216.38;;;28.41;34.23
62524;BME280;53689;56.878;60.672;2022-08-11T01:49:31;98209.03;;;28.41;34.16
62524;BME280;53689;56.878;60.672;2022-08-11T01:52:25;98207.38;;;28.40;34.41
62524;BME280;53689;56.878;60.672;2022-08-11T01:55:08;98204.97;;;28.44;34.27
62524;BME280;53689;56.878;60.672;2022-08-11T01:57:44;98213.75;;;28.46;34.23
62524;BME280;53689;56.878;60.672;2022-08-11T02:00:15;98204.00;;;28.50;34.06
62524;BME280;53689;56.878;60.672;2022-08-11T02:02:48;98209.47;;;28.50;33.92
62524;BME280;53689;56.878;60.672;2022-08-11T02:05:26;98207.56;;;28.50;34.08
62524;BME280;53689;56.878;60.672;2022-08-11T02:08:07;98212.84;;;28.57;33.91
62524;BME280;53689;56.878;60.672;2022-08-11T02:10:43;98212.94;;;28.62;33.87
62524;BME280;53689;56.878;60.672;2022-08-11T02:13:33;98213.50;;;28.64;33.85
62524;BME280;53689;56.878;60.672;2022-08-11T02:16:12;98210.53;;;28.66;33.67
62524;BME280;53689;56.878;60.672;2022-08-11T02:18:48;98202.59;;;28.64;33.89
62524;BME280;53689;56.878;60.672;2022-08-11T02:21:22;98204.84;;;28.67;33.93
62524;BME280;53689;56.878;60.672;2022-08-11T02:23:57;98212.94;;;28.62;34.01
62524;BME280;53689;56.878;60.672;2022-08-11T02:26:38;98205.09;;;28.66;34.13
62524;BME280;53689;56.878;60.672;2022-08-11T02:29:15;98209.22;;;28.69;33.83
62524;BME280;53689;56.878;60.672;2022-08-11T02:31:59;98208.72;;;28.72;34.10
62524;BME280;53689;56.878;60.672;2022-08-11T02:34:58;98202.47;;;28.71;34.00
62524;BME280;53689;56.878;60.672;2022-08-11T02:37:41;98203.28;;;28.72;33.87
62524;BME280;53689;56.878;60.672;2022-08-11T02:40:21;98210.78;;;28.64;35.56
62524;BME280;53689;56.878;60.672;2022-08-11T02:42:58;98213.59;;;28.70;34.84
62524;BME280;53689;56.878;60.672;2022-08-11T02:45:36;98206.44;;;28.80;34.34
62524;BME280;53689;56.878;60.672;2022-08-11T02:48:12;98206.81;;;28.84;33.89
62524;BME280;53689;56.878;60.672;2022-08-11T02:50:51;98204.66;;;28.86;34.17
62524;BME280;53689;56.878;60.672;2022-08-11T02:53:36;98206.97;;;28.94;33.89
62524;BME280;53689;56.878;60.672;2022-08-11T02:56:11;98208.34;;;28.97;34.04
62524;BME280;53689;56.878;60.672;2022-08-11T02:58:48;98206.47;;;28.98;34.00
62524;BME280;53689;56.878;60.672;2022-08-11T03:01:29;98207.03;;;29.00;33.78
62524;BME280;53689;56.878;60.672;2022-08-11T03:04:11;98204.63;;;29.03;33.80
62524;BME280;53689;56.878;60.672;2022-08-11T03:06:48;98209.28;;;29.03;33.91
62524;BME280;53689;56.878;60.672;2022-08-11T03:09:19;98200.25;;;29.02;33.72
62524;BME280;53689;56.878;60.672;2022-08-11T03:11:56;98201.66;;;29.05;33.63
62524;BME280;53689;56.878;60.672;2022-08-11T03:14:33;98204.41;;;29.05;33.66
62524;BME280;53689;56.878;60.672;2022-08-11T03:17:20;98204.41;;;29.05;33.68
62524;BME280;53689;56.878;60.672;2022-08-11T03:20:00;98202.56;;;29.11;33.61
62524;BME280;53689;56.878;60.672;2022-08-11T03:22:35;98199.84;;;29.11;33.72
62524;BME280;53689;56.878;60.672;2022-08-11T03:25:08;98201.72;;;29.10;33.55
62524;BME280;53689;56.878;60.672;2022-08-11T03:27:48;98205.88;;;29.13;33.35
62524;BME280;53689;56.878;60.672;2022-08-11T03:30:20;98202.34;;;29.12;33.55
62524;BME280;53689;56.878;60.672;2022-08-11T03:33:17;98197.38;;;29.09;33.62
62524;BME280;53689;56.878;60.672;2022-08-11T03:36:09;98206.72;;;29.13;33.64
62524;BME280;53689;56.878;60.672;2022-08-11T03:38:51;98205.97;;;29.18;33.35
62524;BME280;53689;56.878;60.672;2022-08-11T03:41:31;98200.50;;;29.18;33.47
62524;BME280;53689;56.878;60.672;2022-08-11T03:44:47;98201.88;;;29.20;33.26
62524;BME280;53689;56.878;60.672;2022-08-11T03:47:28;98197.66;;;29.30;33.40
62524;BME280;53689;56.878;60.672;2022-08-11T03:50:07;98201.66;;;29.22;33.32
62524;BME280;53689;56.878;60.672;2022-08-11T03:52:48;98206.44;;;29.32;33.42
62524;BME280;53689;56.878;60.672;2022-08-11T03:55:26;98205.78;;;29.25;33.31
62524;BME280;53689;56.878;60.672;2022-08-11T03:58:19;98197.50;;;29.19;33.10
62524;BME280;53689;56.878;60.672;2022-08-11T04:01:26;98197.31;;;29.26;33.29
62524;BME280;53689;56.878;60.672;2022-08-11T04:07:11;98198.34;;;29.20;33.73
62524;BME280;53689;56.878;60.672;2022-08-11T04:10:09;98192.81;;;29.32;33.28
62524;BME280;53689;56.878;60.672;2022-08-11T04:15:59;98192.66;;;29.44;33.31
62524;BME280;53689;56.878;60.672;2022-08-11T04:18:52;98192.47;;;29.45;32.96
62524;BME280;53689;56.878;60.672;2022-08-11T04:24:57;98189.22;;;29.48;32.98
62524;BME280;53689;56.878;60.672;2022-08-11T04:27:59;98193.53;;;29.44;33.26
62524;BME280;53689;56.878;60.672;2022-08-11T04:30:44;98188.72;;;29.52;32.86
62524;BME280;53689;56.878;60.672;2022-08-11T04:33:53;98192.84;;;29.54;33.04
62524;BME280;53689;56.878;60.672;2022-08-11T04:36:50;98190.50;;;29.63;32.82
62524;BME280;53689;56.878;60.672;2022-08-11T04:39:33;98192.63;;;29.39;33.38
62524;BME280;53689;56.878;60.672;2022-08-11T04:42:51;98188.44;;;29.14;33.97
62524;BME280;53689;56.878;60.672;2022-08-11T04:45:49;98187.06;;;28.94;34.21
62524;BME280;53689;56.878;60.672;2022-08-11T04:48:45;98191.63;;;29.28;33.47
62524;BME280;53689;56.878;60.672;2022-08-11T04:51:46;98187.22;;;29.61;32.87
62524;BME280;53689;56.878;60.672;2022-08-11T04:54:25;98178.63;;;29.74;33.08
62524;BME280;53689;56.878;60.672;2022-08-11T04:57:02;98176.88;;;29.63;33.18
62524;BME280;53689;56.878;60.672;2022-08-11T05:00:00;98185.31;;;29.05;34.13
62524;BME280;53689;56.878;60.672;2022-08-11T05:06:17;98191.31;;;28.73;34.95
62524;BME280;53689;56.878;60.672;2022-08-11T05:09:24;98182.28;;;28.84;34.60
62524;BME280;53689;56.878;60.672;2022-08-11T05:12:24;98193.09;;;29.13;34.16
62524;BME280;53689;56.878;60.672;2022-08-11T05:14:56;98190.69;;;28.83;34.67
62524;BME280;53689;56.878;60.672;2022-08-11T05:17:35;98187.34;;;28.46;35.94
62524;BME280;53689;56.878;60.672;2022-08-11T05:20:08;98180.34;;;28.50;35.72
62524;BME280;53689;56.878;60.672;2022-08-11T05:22:38;98173.91;;;29.08;34.75
62524;BME280;53689;56.878;60.672;2022-08-11T05:25:14;98180.22;;;29.31;34.02
62524;BME280;53689;56.878;60.672;2022-08-11T05:28:05;98183.88;;;28.68;35.57
62524;BME280;53689;56.878;60.672;2022-08-11T05:30:40;98183.22;;;29.29;33.92
62524;BME280;53689;56.878;60.672;2022-08-11T05:33:11;98184.97;;;29.18;34.50
62524;BME280;53689;56.878;60.672;2022-08-11T05:35:43;98185.06;;;28.89;35.34
62524;BME280;53689;56.878;60.672;2022-08-11T05:38:29;98180.94;;;29.04;34.74
62524;BME280;53689;56.878;60.672;2022-08-11T05:41:00;98181.16;;;29.19;34.41
62524;BME280;53689;56.878;60.672;2022-08-11T05:43:28;98177.75;;;29.46;34.17
62524;BME280;53689;56.878;60.672;2022-08-11T05:45:59;98179.44;;;29.13;34.67
62524;BME280;53689;56.878;60.672;2022-08-11T05:48:35;98180.03;;;29.15;34.57
62524;BME280;53689;56.878;60.672;2022-08-11T05:51:03;98179.28;;;29.20;34.84
62524;BME280;53689;56.878;60.672;2022-08-11T05:53:45;98176.47;;;28.98;35.15
62524;BME280;53689;56.878;60.672;2022-08-11T05:56:13;98177.66;;;29.41;34.16
62524;BME280;53689;56.878;60.672;2022-08-11T05:58:43;98177.63;;;29.02;35.16
62524;BME280;53689;56.878;60.672;2022-08-11T06:01:22;98180.16;;;29.26;34.63
62524;BME280;53689;56.878;60.672;2022-08-11T06:03:53;98181.16;;;29.81;33.94
62524;BME280;53689;56.878;60.672;2022-08-11T06:06:26;98175.72;;;29.81;33.56
62524;BME280;53689;56.878;60.672;2022-08-11T06:08:54;98173.38;;;29.45;34.32
62524;BME280;53689;56.878;60.672;2022-08-11T06:11:23;98183.13;;;29.24;34.70
62524;BME280;53689;56.878;60.672;2022-08-11T06:14:11;98178.97;;;29.39;35.14
62524;BME280;53689;56.878;60.672;2022-08-11T06:16:41;98176.16;;;29.33;34.89
62524;BME280;53689;56.878;60.672;2022-08-11T06:19:10;98169.97;;;29.38;35.00
62524;BME280;53689;56.878;60.672;2022-08-11T06:21:43;98171.47;;;29.46;35.14
62524;BME280;53689;56.878;60.672;2022-08-11T06:24:12;98168.31;;;29.37;35.03
62524;BME280;53689;56.878;60.672;2022-08-11T06:26:41;98171.28;;;29.53;34.79
62524;BME280;53689;56.878;60.672;2022-08-11T06:29:35;98171.56;;;29.34;35.21
62524;BME280;53689;56.878;60.672;2022-08-11T06:32:23;98172.19;;;29.81;34.08
62524;BME280;53689;56.878;60.672;2022-08-11T06:35:00;98161.69;;;29.50;34.79
62524;BME280;53689;56.878;60.672;2022-08-11T06:37:38;98163.75;;;29.43;35.84
62524;BME280;53689;56.878;60.672;2022-08-11T06:40:09;98163.00;;;29.65;35.08
62524;BME280;53689;56.878;60.672;2022-08-11T06:42:47;98157.56;;;29.47;34.98
62524;BME280;53689;56.878;60.672;2022-08-11T06:45:25;98168.00;;;29.51;35.37
62524;BME280;53689;56.878;60.672;2022-08-11T06:47:55;98155.63;;;29.26;35.49
62524;BME280;53689;56.878;60.672;2022-08-11T06:50:23;98149.84;;;29.22;35.72
62524;BME280;53689;56.878;60.672;2022-08-11T06:52:52;98162.22;;;29.30;35.63
62524;BME280;53689;56.878;60.672;2022-08-11T06:55:22;98166.16;;;29.39;35.45
62524;BME280;53689;56.878;60.672;2022-08-11T06:58:12;98164.31;;;29.23;35.85
62524;BME280;53689;56.878;60.672;2022-08-11T07:00:42;98161.25;;;29.58;34.77
62524;BME280;53689;56.878;60.672;2022-08-11T07:03:14;98160.50;;;29.85;34.85
62524;BME280;53689;56.878;60.672;2022-08-11T07:05:46;98155.59;;;29.65;35.13
62524;BME280;53689;56.878;60.672;2022-08-11T07:08:29;98151.31;;;29.30;35.52
62524;BME280;53689;56.878;60.672;2022-08-11T07:11:25;98161.09;;;29.93;34.94
62524;BME280;53689;56.878;60.672;2022-08-11T07:14:00;98161.69;;;30.17;34.43
62524;BME280;53689;56.878;60.672;2022-08-11T07:16:29;98159.28;;;29.54;35.67
62524;BME280;53689;56.878;60.672;2022-08-11T07:19:01;98154.22;;;29.23;36.56
62524;BME280;53689;56.878;60.672;2022-08-11T07:21:31;98162.81;;;29.32;35.97
62524;BME280;53689;56.878;60.672;2022-08-11T07:24:22;98155.16;;;29.73;35.63
62524;BME280;53689;56.878;60.672;2022-08-11T07:27:14;98160.03;;;29.10;36.58
62524;BME280;53689;56.878;60.672;2022-08-11T07:29:46;98152.25;;;29.80;35.21
62524;BME280;53689;56.878;60.672;2022-08-11T07:32:21;98148.38;;;29.54;36.00
62524;BME280;53689;56.878;60.672;2022-08-11T07:34:56;98152.00;;;29.59;35.93
62524;BME280;53689;56.878;60.672;2022-08-11T07:37:25;98146.41;;;28.92;36.90
62524;BME280;53689;56.878;60.672;2022-08-11T07:39:57;98156.66;;;29.42;36.17
62524;BME280;53689;56.878;60.672;2022-08-11T07:42:29;98154.28;;;29.68;35.84
62524;BME280;53689;56.878;60.672;2022-08-11T07:44:58;98154.03;;;29.07;37.27
62524;BME280;53689;56.878;60.672;2022-08-11T07:47:26;98160.75;;;29.84;35.86
62524;BME280;53689;56.878;60.672;2022-08-11T07:49:56;98163.09;;;29.75;36.33
62524;BME280;53689;56.878;60.672;2022-08-11T07:52:28;98154.63;;;29.32;37.22
62524;BME280;53689;56.878;60.672;2022-08-11T07:54:59;98161.50;;;29.17;37.56
62524;BME280;53689;56.878;60.672;2022-08-11T07:57:30;98156.06;;;29.17;37.62
62524;BME280;53689;56.878;60.672;2022-08-11T08:00:18;98157.41;;;28.98;38.14
62524;BME280;53689;56.878;60.672;2022-08-11T08:02:46;98149.09;;;29.27;37.24
62524;BME280;53689;56.878;60.672;2022-08-11T08:05:17;98147.44;;;29.26;37.34
62524;BME280;53689;56.878;60.672;2022-08-11T08:07:45;98150.72;;;29.67;37.21
62524;BME280;53689;56.878;60.672;2022-08-11T08:10:16;98138.31;;;29.37;37.60
62524;BME280;53689;56.878;60.672;2022-08-11T08:12:45;98123.69;;;29.43;37.72
62524;BME280;53689;56.878;60.672;2022-08-11T08:15:14;98128.09;;;29.05;38.51
62524;BME280;53689;56.878;60.672;2022-08-11T08:17:43;98130.75;;;29.22;38.64
62524;BME280;53689;56.878;60.672;2022-08-11T08:20:35;98133.25;;;29.24;37.80
62524;BME280;53689;56.878;60.672;2022-08-11T08:23:05;98136.53;;;29.26;37.84
62524;BME280;53689;56.878;60.672;2022-08-11T08:25:35;98126.38;;;29.60;37.47
62524;BME280;53689;56.878;60.672;2022-08-11T08:28:06;98129.22;;;29.48;37.16
62524;BME280;53689;56.878;60.672;2022-08-11T08:30:34;98125.72;;;29.53;37.21
62524;BME280;53689;56.878;60.672;2022-08-11T08:33:02;98126.56;;;29.54;37.39
62524;BME280;53689;56.878;60.672;2022-08-11T08:35:32;98130.66;;;29.34;37.74
62524;BME280;53689;56.878;60.672;2022-08-11T08:38:01;98122.44;;;29.73;36.63
62524;BME280;53689;56.878;60.672;2022-08-11T08:40:29;98117.50;;;29.70;36.56
62524;BME280;53689;56.878;60.672;2022-08-11T08:43:03;98121.56;;;29.45;37.64
62524;BME280;53689;56.878;60.672;2022-08-11T08:45:34;98125.19;;;29.34;37.12
62524;BME280;53689;56.878;60.672;2022-08-11T08:48:07;98130.09;;;29.32;37.51
62524;BME280;53689;56.878;60.672;2022-08-11T08:50:42;98124.72;;;29.59;36.68
62524;BME280;53689;56.878;60.672;2022-08-11T08:53:13;98129.06;;;29.55;37.00
62524;BME280;53689;56.878;60.672;2022-08-11T08:55:45;98126.59;;;29.14;37.58
62524;BME280;53689;56.878;60.672;2022-08-11T08:58:12;98128.41;;;28.74;38.02
62524;BME280;53689;56.878;60.672;2022-08-11T09:00:43;98133.59;;;29.10;37.68
62524;BME280;53689;56.878;60.672;2022-08-11T09:03:12;98135.69;;;29.42;37.16
62524;BME280;53689;56.878;60.672;2022-08-11T09:06:01;98131.88;;;29.43;36.75
62524;BME280;53689;56.878;60.672;2022-08-11T09:08:30;98141.91;;;28.98;37.44
62524;BME280;53689;56.878;60.672;2022-08-11T09:10:59;98132.16;;;28.85;37.79
62524;BME280;53689;56.878;60.672;2022-08-11T09:13:28;98131.94;;;29.09;37.05
62524;BME280;53689;56.878;60.672;2022-08-11T09:15:55;98142.00;;;29.26;37.11
62524;BME280;53689;56.878;60.672;2022-08-11T09:18:23;98151.97;;;28.98;37.49
62524;BME280;53689;56.878;60.672;2022-08-11T09:20:51;98155.16;;;29.12;37.10
62524;BME280;53689;56.878;60.672;2022-08-11T09:23:20;98164.16;;;28.78;37.39
62524;BME280;53689;56.878;60.672;2022-08-11T09:26:09;98143.22;;;28.96;36.75
62524;BME280;53689;56.878;60.672;2022-08-11T09:28:37;98146.09;;;28.08;38.18
62524;BME280;53689;56.878;60.672;2022-08-11T09:31:06;98130.75;;;28.65;37.51
62524;BME280;53689;56.878;60.672;2022-08-11T09:33:34;98129.44;;;29.25;36.70
62524;BME280;53689;56.878;60.672;2022-08-11T09:36:03;98126.28;;;29.33;36.37
62524;BME280;53689;56.878;60.672;2022-08-11T09:38:32;98121.16;;;28.80;37.20
62524;BME280;53689;56.878;60.672;2022-08-11T09:41:02;98138.56;;;28.79;37.13
62524;BME280;53689;56.878;60.672;2022-08-11T09:43:30;98142.88;;;28.75;37.23
62524;BME280;53689;56.878;60.672;2022-08-11T09:46:00;98148.84;;;28.89;36.99
62524;BME280;53689;56.878;60.672;2022-08-11T09:48:30;98152.94;;;28.57;37.96
62524;BME280;53689;56.878;60.672;2022-08-11T09:50:59;98151.47;;;28.66;37.87
62524;BME280;53689;56.878;60.672;2022-08-11T09:53:34;98147.66;;;28.67;38.55
62524;BME280;53689;56.878;60.672;2022-08-11T09:56:10;98155.72;;;28.62;39.49
62524;BME280;53689;56.878;60.672;2022-08-11T09:58:38;98149.72;;;28.43;40.09
62524;BME280;53689;56.878;60.672;2022-08-11T10:01:09;98151.53;;;28.08;40.95
62524;BME280;53689;56.878;60.672;2022-08-11T10:03:38;98148.75;;;27.91;41.33
62524;BME280;53689;56.878;60.672;2022-08-11T10:06:08;98158.06;;;28.36;40.01
62524;BME280;53689;56.878;60.672;2022-08-11T10:08:40;98152.94;;;28.74;38.78
62524;BME280;53689;56.878;60.672;2022-08-11T10:11:10;98162.63;;;28.99;38.44
62524;BME280;53689;56.878;60.672;2022-08-11T10:13:41;98153.41;;;28.54;39.38
62524;BME280;53689;56.878;60.672;2022-08-11T10:16:34;98157.59;;;27.98;40.98
62524;BME280;53689;56.878;60.672;2022-08-11T10:19:03;98151.56;;;27.96;40.58
62524;BME280;53689;56.878;60.672;2022-08-11T10:21:36;98145.19;;;28.49;39.84
62524;BME280;53689;56.878;60.672;2022-08-11T10:24:07;98152.69;;;27.83;40.87
62524;BME280;53689;56.878;60.672;2022-08-11T10:26:35;98154.66;;;28.17;40.06
62524;BME280;53689;56.878;60.672;2022-08-11T10:29:04;98150.28;;;28.28;39.86
62524;BME280;53689;56.878;60.672;2022-08-11T10:31:40;98146.81;;;28.33;39.33
62524;BME280;53689;56.878;60.672;2022-08-11T10:34:25;98145.91;;;28.61;39.35
62524;BME280;53689;56.878;60.672;2022-08-11T10:36:55;98152.31;;;27.92;39.89
62524;BME280;53689;56.878;60.672;2022-08-11T10:39:25;98165.72;;;28.10;39.77
62524;BME280;53689;56.878;60.672;2022-08-11T10:41:53;98157.69;;;28.04;39.54
62524;BME280;53689;56.878;60.672;2022-08-11T10:44:37;98158.63;;;27.80;40.22
62524;BME280;53689;56.878;60.672;2022-08-11T10:47:06;98150.84;;;28.01;39.15
62524;BME280;53689;56.878;60.672;2022-08-11T10:49:33;98149.38;;;27.81;39.70
62524;BME280;53689;56.878;60.672;2022-08-11T10:52:02;98155.53;;;27.89;39.85
62524;BME280;53689;56.878;60.672;2022-08-11T10:54:32;98159.03;;;27.89;39.63
62524;BME280;53689;56.878;60.672;2022-08-11T10:57:01;98171.94;;;28.23;39.32
62524;BME280;53689;56.878;60.672;2022-08-11T10:59:29;98172.84;;;28.00;39.86
62524;BME280;53689;56.878;60.672;2022-08-11T11:02:00;98173.53;;;28.07;39.68
62524;BME280;53689;56.878;60.672;2022-08-11T11:04:35;98170.03;;;27.94;40.02
62524;BME280;53689;56.878;60.672;2022-08-11T11:07:08;98171.50;;;28.43;38.75
62524;BME280;53689;56.878;60.672;2022-08-11T11:09:40;98174.91;;;28.21;39.26
62524;BME280;53689;56.878;60.672;2022-08-11T11:12:10;98178.75;;;28.37;38.91
62524;BME280;53689;56.878;60.672;2022-08-11T11:14:41;98184.03;;;28.15;39.63
62524;BME280;53689;56.878;60.672;2022-08-11T11:17:19;98181.34;;;28.03;39.97
62524;BME280;53689;56.878;60.672;2022-08-11T11:19:52;98183.19;;;28.27;39.34
62524;BME280;53689;56.878;60.672;2022-08-11T11:22:22;98187.06;;;28.31;39.37
62524;BME280;53689;56.878;60.672;2022-08-11T11:25:00;98173.88;;;28.10;39.95
62524;BME280;53689;56.878;60.672;2022-08-11T11:27:32;98171.22;;;28.28;39.21
62524;BME280;53689;56.878;60.672;2022-08-11T11:30:13;98166.69;;;28.33;39.35
62524;BME280;53689;56.878;60.672;2022-08-11T11:32:47;98174.16;;;28.55;38.83
62524;BME280;53689;56.878;60.672;2022-08-11T11:35:25;98182.63;;;28.59;38.62
62524;BME280;53689;56.878;60.672;2022-08-11T11:37:57;98175.34;;;28.30;39.80
62524;BME280;53689;56.878;60.672;2022-08-11T11:40:33;98172.81;;;28.11;39.80
62524;BME280;53689;56.878;60.672;2022-08-11T11:43:00;98163.56;;;28.13;39.61
62524;BME280;53689;56.878;60.672;2022-08-11T11:45:28;98167.75;;;28.32;39.19
62524;BME280;53689;56.878;60.672;2022-08-11T11:47:58;98170.25;;;28.34;39.15
62524;BME280;53689;56.878;60.672;2022-08-11T11:50:28;98162.84;;;28.63;38.77
62524;BME280;53689;56.878;60.672;2022-08-11T11:53:00;98160.66;;;28.31;38.85
62524;BME280;53689;56.878;60.672;2022-08-11T11:55:30;98166.09;;;28.31;38.88
62524;BME280;53689;56.878;60.672;2022-08-11T11:58:00;98169.34;;;28.45;38.70
62524;BME280;53689;56.878;60.672;2022-08-11T12:00:29;98165.94;;;28.38;38.64
62524;BME280;53689;56.878;60.672;2022-08-11T12:03:03;98157.44;;;28.34;38.63
62524;BME280;53689;56.878;60.672;2022-08-11T12:05:33;98165.47;;;28.41;38.47
62524;BME280;53689;56.878;60.672;2022-08-11T12:08:03;98161.06;;;28.40;38.53
62524;BME280;53689;56.878;60.672;2022-08-11T12:10:39;98160.69;;;28.48;38.08
62524;BME280;53689;56.878;60.672;2022-08-11T12:13:11;98155.09;;;28.55;38.16
62524;BME280;53689;56.878;60.672;2022-08-11T12:15:38;98153.91;;;28.68;37.67
62524;BME280;53689;56.878;60.672;2022-08-11T12:18:26;98155.09;;;28.55;37.82
62524;BME280;53689;56.878;60.672;2022-08-11T12:20:53;98153.13;;;28.50;37.72
62524;BME280;53689;56.878;60.672;2022-08-11T12:23:21;98157.22;;;28.53;37.69
62524;BME280;53689;56.878;60.672;2022-08-11T12:25:48;98158.88;;;28.54;37.63
62524;BME280;53689;56.878;60.672;2022-08-11T12:28:37;98153.28;;;28.61;37.55
62524;BME280;53689;56.878;60.672;2022-08-11T12:31:05;98163.16;;;28.67;37.38
62524;BME280;53689;56.878;60.672;2022-08-11T12:33:33;98152.94;;;28.57;37.47
62524;BME280;53689;56.878;60.672;2022-08-11T12:36:07;98149.88;;;28.53;37.56
62524;BME280;53689;56.878;60.672;2022-08-11T12:38:36;98142.34;;;28.44;37.42
62524;BME280;53689;56.878;60.672;2022-08-11T12:41:04;98158.22;;;28.47;37.39
62524;BME280;53689;56.878;60.672;2022-08-11T12:43:50;98157.81;;;28.55;37.33
62524;BME280;53689;56.878;60.672;2022-08-11T12:46:24;98162.47;;;28.25;38.20
62524;BME280;53689;56.878;60.672;2022-08-11T12:48:57;98156.47;;;28.41;37.70
62524;BME280;53689;56.878;60.672;2022-08-11T12:51:33;98154.91;;;28.45;37.54
62524;BME280;53689;56.878;60.672;2022-08-11T12:54:26;98166.28;;;28.24;37.54
62524;BME280;53689;56.878;60.672;2022-08-11T12:56:59;98167.38;;;28.41;37.33
62524;BME280;53689;56.878;60.672;2022-08-11T12:59:30;98170.84;;;28.53;36.68
62524;BME280;53689;56.878;60.672;2022-08-11T13:01:58;98162.09;;;28.68;36.67
62524;BME280;53689;56.878;60.672;2022-08-11T13:04:26;98171.50;;;28.77;36.38
62524;BME280;53689;56.878;60.672;2022-08-11T13:06:54;98177.34;;;28.69;36.55
62524;BME280;53689;56.878;60.672;2022-08-11T13:09:22;98176.53;;;28.69;35.78
62524;BME280;53689;56.878;60.672;2022-08-11T13:11:49;98175.03;;;28.44;35.47
62524;BME280;53689;56.878;60.672;2022-08-11T13:14:24;98174.06;;;28.50;35.11
62524;BME280;53689;56.878;60.672;2022-08-11T13:16:53;98175.38;;;28.47;34.63
62524;BME280;53689;56.878;60.672;2022-08-11T13:19:22;98172.41;;;28.49;34.74
62524;BME280;53689;56.878;60.672;2022-08-11T13:21:50;98167.06;;;28.25;34.53
62524;BME280;53689;56.878;60.672;2022-08-11T13:24:19;98171.56;;;28.31;33.96
62524;BME280;53689;56.878;60.672;2022-08-11T13:26:48;98155.22;;;28.48;33.84
62524;BME280;53689;56.878;60.672;2022-08-11T13:29:22;98155.84;;;28.50;33.90
62524;BME280;53689;56.878;60.672;2022-08-11T13:31:53;98161.34;;;28.56;33.95
62524;BME280;53689;56.878;60.672;2022-08-11T13:34:23;98154.47;;;28.36;33.66
62524;BME280;53689;56.878;60.672;2022-08-11T13:36:53;98161.50;;;28.32;33.28
62524;BME280;53689;56.878;60.672;2022-08-11T13:39:23;98156.88;;;28.32;33.22
62524;BME280;53689;56.878;60.672;2022-08-11T13:41:53;98156.63;;;28.34;33.24
62524;BME280;53689;56.878;60.672;2022-08-11T13:44:24;98152.59;;;28.36;33.23
62524;BME280;53689;56.878;60.672;2022-08-11T13:46:57;98151.59;;;28.43;33.25
62524;BME280;53689;56.878;60.672;2022-08-11T13:49:25;98155.16;;;28.43;32.74
62524;BME280;53689;56.878;60.672;2022-08-11T13:51:54;98154.72;;;28.34;33.73
62524;BME280;53689;56.878;60.672;2022-08-11T13:54:24;98155.41;;;28.42;32.58
62524;BME280;53689;56.878;60.672;2022-08-11T13:56:54;98162.13;;;28.22;33.13
62524;BME280;53689;56.878;60.672;2022-08-11T13:59:23;98164.00;;;28.21;32.31
62524;BME280;53689;56.878;60.672;2022-08-11T14:02:00;98162.41;;;28.08;32.30
62524;BME280;53689;56.878;60.672;2022-08-11T14:04:52;98169.84;;;28.13;32.42
62524;BME280;53689;56.878;60.672;2022-08-11T14:07:21;98170.78;;;28.19;32.54
62524;BME280;53689;56.878;60.672;2022-08-11T14:09:55;98163.22;;;28.09;32.15
62524;BME280;53689;56.878;60.672;2022-08-11T14:12:25;98166.16;;;28.19;31.73
62524;BME280;53689;56.878;60.672;2022-08-11T14:14:59;98160.44;;;28.04;31.37
62524;BME280;53689;56.878;60.672;2022-08-11T14:17:38;98160.72;;;28.07;31.50